Time;durP1;ratioP1;P1;durP2;ratioP2;P2;SDS_P1;SDS_P2;PMS_P1;PMS_P2;Temp;Humidity;BMP_temperature;BMP_pressure;BME280_temperature;BME280_humidity;BME280_pressure;Samples;Min_cycle;Max_cycle;Signal;HPM_P1;HPM_P2
2022/01/06 00:00:39;;;;;;;50.17;17.20;;;-3.50;92.10;;;;;;5091713;28;20040;-76
2022/01/06 00:03:07;;;;;;;46.78;16.98;;;-3.50;92.00;;;;;;5074311;28;20055;-76
2022/01/06 00:05:35;;;;;;;57.95;20.27;;;-3.50;91.80;;;;;;5091204;28;20050;-76
2022/01/06 00:08:03;;;;;;;54.08;20.40;;;-3.50;91.80;;;;;;5091443;28;20047;-76
2022/01/06 00:10:31;;;;;;;62.95;21.33;;;-3.50;92.10;;;;;;5074253;28;20048;-76
2022/01/06 00:15:34;;;;;;;49.65;19.67;;;-3.40;91.90;;;;;;5073162;28;20039;-76
2022/01/06 00:25:45;;;;;;;47.63;18.98;;;-3.40;91.80;;;;;;5086456;28;20047;-76
2022/01/06 00:28:13;;;;;;;54.72;18.92;;;-3.40;91.80;;;;;;5082095;28;20040;-76
2022/01/06 00:30:41;;;;;;;46.33;18.35;;;-3.40;91.90;;;;;;5065543;28;20412;-77
2022/01/06 00:33:09;;;;;;;50.58;19.60;;;-3.40;92.10;;;;;;5078226;28;20392;-77
2022/01/06 00:35:37;;;;;;;56.20;19.50;;;-3.40;92.10;;;;;;5084579;28;20049;-77
2022/01/06 00:38:07;;;;;;;51.95;19.08;;;-3.40;92.00;;;;;;5089983;28;20040;-77
2022/01/06 00:40:35;;;;;;;51.03;19.27;;;-3.40;91.80;;;;;;5088988;28;20048;-76
2022/01/06 00:43:05;;;;;;;50.28;18.85;;;-3.50;91.60;;;;;;5088956;28;20053;-77
2022/01/06 00:45:35;;;;;;;72.72;21.85;;;-3.50;91.60;;;;;;5077636;28;20055;-76
2022/01/06 00:48:09;;;;;;;55.83;20.20;;;-3.50;91.80;;;;;;5076519;28;20043;-76
2022/01/06 00:50:39;;;;;;;59.80;19.88;;;-3.50;92.10;;;;;;5084556;28;20510;-77
2022/01/06 00:53:07;;;;;;;52.20;20.73;;;-3.50;91.90;;;;;;5086729;28;20032;-76
2022/01/06 00:55:37;;;;;;;61.08;20.40;;;-3.50;91.80;;;;;;5085294;28;20055;-77
2022/01/06 00:58:05;;;;;;;53.28;18.85;;;-3.60;91.70;;;;;;5070335;28;20047;-77
2022/01/06 01:00:38;;;;;;;49.95;19.35;;;-3.60;91.70;;;;;;5094011;28;20059;-77
2022/01/06 01:03:21;;;;;;;55.88;20.98;;;-3.70;91.70;;;;;;5093788;28;20055;-76
2022/01/06 01:05:53;;;;;;;50.50;16.30;;;-3.70;91.80;;;;;;5059946;28;20042;-76
2022/01/06 01:08:22;;;;;;;56.70;20.05;;;-3.70;91.80;;;;;;5079827;28;20057;-77
2022/01/06 01:10:52;;;;;;;48.38;20.33;;;-3.70;92.10;;;;;;5082296;28;20055;-76
2022/01/06 01:13:31;;;;;;;55.03;19.85;;;-3.70;92.20;;;;;;5084404;28;20051;-76
2022/01/06 01:16:08;;;;;;;68.90;21.50;;;-3.60;92.40;;;;;;5078728;28;20041;-76
2022/01/06 01:18:36;;;;;;;59.90;21.83;;;-3.60;92.60;;;;;;5077824;28;20076;-77
2022/01/06 01:21:04;;;;;;;56.13;21.10;;;-3.40;92.60;;;;;;5085952;28;20400;-77
2022/01/06 01:23:32;;;;;;;55.92;19.92;;;-3.40;92.40;;;;;;5062991;28;20051;-77
2022/01/06 01:25:59;;;;;;;49.30;19.88;;;-3.40;92.30;;;;;;5092064;28;20056;-77
2022/01/06 01:28:33;;;;;;;48.70;17.98;;;-3.40;92.40;;;;;;5063261;28;20040;-76
2022/01/06 01:31:48;;;;;;;54.60;20.17;;;-3.30;92.50;;;;;;5087446;28;20063;-76
2022/01/06 01:33:51;;;;;;;58.97;18.30;;;-3.20;92.50;;;;;;5043982;28;20048;-77
2022/01/06 01:36:20;;;;;;;47.53;18.33;;;-3.10;92.60;;;;;;5082689;28;20044;-76
2022/01/06 01:38:48;;;;;;;42.22;17.98;;;-3.00;92.50;;;;;;5084437;28;20067;-77
2022/01/06 01:41:16;;;;;;;52.05;18.90;;;-2.90;92.50;;;;;;5079995;28;20051;-76
2022/01/06 01:43:47;;;;;;;50.10;17.17;;;-2.80;92.50;;;;;;5081539;28;20059;-76
2022/01/06 01:46:17;;;;;;;54.33;16.80;;;-2.70;92.50;;;;;;5091533;28;20044;-76
2022/01/06 01:48:52;;;;;;;55.58;17.33;;;-2.60;92.50;;;;;;5072290;28;20047;-76
2022/01/06 01:51:20;;;;;;;48.80;17.55;;;-2.60;92.60;;;;;;5081155;28;20040;-76
2022/01/06 01:53:48;;;;;;;34.13;15.60;;;-2.50;92.50;;;;;;5105048;28;20043;-76
2022/01/06 01:56:16;;;;;;;41.35;16.15;;;-2.40;92.50;;;;;;5085935;28;20052;-76
2022/01/06 01:58:44;;;;;;;33.80;14.63;;;-2.30;92.50;;;;;;5080628;28;20037;-76
2022/01/06 02:01:12;;;;;;;40.63;15.98;;;-2.20;92.50;;;;;;5086296;28;20079;-76
2022/01/06 02:03:39;;;;;;;44.72;15.85;;;-2.20;92.40;;;;;;5082498;28;20055;-76
2022/01/06 02:06:07;;;;;;;39.33;15.32;;;-2.10;92.40;;;;;;5063668;28;20431;-76
2022/01/06 02:08:35;;;;;;;41.55;16.10;;;-2.10;92.30;;;;;;5086369;28;20491;-76
2022/01/06 02:11:02;;;;;;;44.65;15.75;;;-2.00;92.40;;;;;;5080572;28;20074;-76
2022/01/06 02:13:31;;;;;;;35.28;16.10;;;-2.00;92.40;;;;;;5083226;28;20048;-77
2022/01/06 02:16:01;;;;;;;47.97;15.30;;;-1.90;92.40;;;;;;5081710;28;20561;-76
2022/01/06 02:18:29;;;;;;;38.35;15.27;;;-1.90;92.30;;;;;;5074172;28;20063;-76
2022/01/06 02:20:56;;;;;;;44.80;14.23;;;-1.90;92.40;;;;;;5077631;28;20505;-77
2022/01/06 02:23:24;;;;;;;36.40;15.77;;;-1.80;92.40;;;;;;5090330;28;20049;-76
2022/01/06 02:25:52;;;;;;;39.95;15.80;;;-1.80;92.30;;;;;;5089939;28;20040;-77
2022/01/06 02:28:22;;;;;;;38.60;16.40;;;-1.70;92.40;;;;;;5080794;28;20044;-76
2022/01/06 02:30:51;;;;;;;43.83;16.02;;;-1.70;92.40;;;;;;5084325;28;20043;-76
2022/01/06 02:33:19;;;;;;;41.45;16.58;;;-1.70;92.30;;;;;;5079034;28;20040;-76
2022/01/06 02:35:48;;;;;;;40.95;16.40;;;-1.70;92.30;;;;;;5082139;28;20044;-76
2022/01/06 02:38:16;;;;;;;35.45;17.27;;;-1.60;92.30;;;;;;5090713;28;20054;-76
2022/01/06 02:40:45;;;;;;;52.35;17.77;;;-1.60;92.30;;;;;;5076255;28;20041;-76
2022/01/06 02:43:16;;;;;;;47.13;18.20;;;-1.60;92.30;;;;;;5080176;28;20422;-76
2022/01/06 02:45:45;;;;;;;48.50;18.30;;;-1.50;92.20;;;;;;5078606;28;20055;-76
2022/01/06 02:48:14;;;;;;;45.53;17.55;;;-1.50;92.20;;;;;;5091166;28;20511;-76
2022/01/06 02:50:48;;;;;;;42.22;17.67;;;-1.50;92.20;;;;;;5076962;28;20048;-76
2022/01/06 02:53:17;;;;;;;64.10;18.20;;;-1.40;92.20;;;;;;5085312;28;20043;-76
2022/01/06 02:55:51;;;;;;;37.75;17.05;;;-1.40;92.20;;;;;;5074797;28;20051;-76
2022/01/06 02:58:38;;;;;;;;;;;-1.40;92.10;;;;;;5080782;28;20483;-76
2022/01/06 03:01:05;;;;;;;61.47;16.58;;;-1.30;92.10;;;;;;5089263;28;19927;-76
2022/01/06 03:03:33;;;;;;;47.45;15.65;;;-1.30;92.00;;;;;;5066709;28;20040;-76
2022/01/06 03:06:01;;;;;;;43.90;15.98;;;-1.30;92.00;;;;;;5079841;28;20518;-76
2022/01/06 03:08:28;;;;;;;37.63;15.07;;;-1.30;92.00;;;;;;5062163;28;20426;-76
2022/01/06 03:10:57;;;;;;;34.90;15.43;;;-1.30;92.00;;;;;;5083028;28;20395;-76
2022/01/06 03:13:25;;;;;;;52.33;16.20;;;-1.30;91.90;;;;;;5081083;28;20040;-76
2022/01/06 03:15:52;;;;;;;41.50;15.75;;;-1.20;92.00;;;;;;5078293;28;20049;-76
2022/01/06 03:18:20;;;;;;;42.38;16.30;;;-1.20;92.00;;;;;;5086725;28;20047;-76
2022/01/06 03:20:48;;;;;;;41.05;15.82;;;-1.20;92.00;;;;;;5082504;28;20044;-76
2022/01/06 03:23:15;;;;;;;43.33;15.38;;;-1.20;92.00;;;;;;5073787;28;20047;-76
2022/01/06 03:25:43;;;;;;;48.00;16.75;;;-1.20;92.00;;;;;;5082200;28;20052;-76
2022/01/06 03:28:11;;;;;;;41.38;15.50;;;-1.20;92.00;;;;;;5082779;28;20071;-76
2022/01/06 03:30:39;;;;;;;37.00;14.80;;;-1.10;92.00;;;;;;5080900;28;20045;-77
2022/01/06 03:33:07;;;;;;;42.33;16.63;;;-1.10;92.00;;;;;;5060291;28;20075;-77
2022/01/06 03:35:34;;;;;;;47.58;16.88;;;-1.10;92.00;;;;;;5077761;28;20052;-76
2022/01/06 03:38:02;;;;;;;40.92;17.02;;;-1.10;92.00;;;;;;5084330;28;20395;-76
2022/01/06 03:40:29;;;;;;;42.67;17.30;;;-1.10;91.90;;;;;;5083518;28;20048;-77
2022/01/06 03:42:57;;;;;;;46.63;18.13;;;-1.00;91.90;;;;;;5068874;28;20048;-77
2022/01/06 03:45:25;;;;;;;45.70;17.17;;;-1.00;91.90;;;;;;5064643;28;20063;-76
2022/01/06 03:47:52;;;;;;;39.20;16.27;;;-1.00;91.90;;;;;;5080573;28;20093;-76
2022/01/06 03:50:20;;;;;;;37.13;16.92;;;-1.00;91.90;;;;;;5083123;28;20048;-76
2022/01/06 03:52:47;;;;;;;40.30;16.40;;;-1.00;91.90;;;;;;5071166;28;20376;-76
2022/01/06 03:55:17;;;;;;;44.22;17.77;;;-1.00;91.90;;;;;;5076196;28;20080;-76
2022/01/06 03:57:46;;;;;;;40.08;15.95;;;-1.00;91.90;;;;;;5084707;28;20048;-76
2022/01/06 04:00:19;;;;;;;41.10;15.73;;;-0.90;91.90;;;;;;5072573;28;20048;-76
2022/01/06 04:02:47;;;;;;;37.67;15.18;;;-0.90;91.90;;;;;;5076176;28;20399;-76
2022/01/06 04:05:15;;;;;;;36.83;14.93;;;-0.90;91.90;;;;;;5085513;28;20040;-76
2022/01/06 04:07:42;;;;;;;40.47;13.90;;;-0.90;91.90;;;;;;5081103;28;20043;-76
2022/01/06 04:10:11;;;;;;;38.63;13.93;;;-0.80;91.90;;;;;;5078246;28;20494;-76
2022/01/06 04:12:39;;;;;;;37.72;13.70;;;-0.80;91.90;;;;;;5080948;28;20044;-76
2022/01/06 04:15:10;;;;;;;29.77;13.98;;;-0.80;91.90;;;;;;5079215;28;20066;-76
2022/01/06 04:17:39;;;;;;;35.25;13.10;;;-0.80;91.90;;;;;;5060512;28;20526;-76
2022/01/06 04:20:08;;;;;;;47.67;14.73;;;-0.70;91.90;;;;;;5072030;28;20044;-76
2022/01/06 04:22:36;;;;;;;34.17;12.15;;;-0.70;91.80;;;;;;5082883;28;20040;-76
2022/01/06 04:25:04;;;;;;;35.95;13.55;;;-0.70;91.80;;;;;;5069919;28;20055;-76
2022/01/06 04:27:33;;;;;;;30.30;11.90;;;-0.70;91.80;;;;;;5082545;28;20502;-76
2022/01/06 04:30:01;;;;;;;32.50;12.15;;;-0.70;91.80;;;;;;5067474;28;20044;-76
2022/01/06 04:32:29;;;;;;;26.67;12.43;;;-0.70;91.80;;;;;;5062590;28;20044;-76
2022/01/06 04:34:58;;;;;;;35.85;12.90;;;-0.60;91.80;;;;;;5049041;28;20407;-76
2022/01/06 04:37:27;;;;;;;29.83;12.25;;;-0.60;91.80;;;;;;5073529;28;20056;-77
2022/01/06 04:39:55;;;;;;;34.10;12.40;;;-0.60;91.80;;;;;;5074479;28;20052;-76
2022/01/06 04:42:23;;;;;;;41.28;12.77;;;-0.60;91.80;;;;;;5079221;28;20060;-76
2022/01/06 04:44:50;;;;;;;36.72;12.55;;;-0.60;91.80;;;;;;5078415;28;20506;-76
2022/01/06 04:47:18;;;;;;;31.00;11.98;;;-0.60;91.80;;;;;;5084340;28;20036;-77
2022/01/06 04:49:45;;;;;;;32.25;13.02;;;-0.60;91.80;;;;;;5086402;28;20514;-76
2022/01/06 04:52:13;;;;;;;36.83;12.80;;;-0.50;91.80;;;;;;5060480;28;20040;-76
2022/01/06 04:54:41;;;;;;;38.92;11.68;;;-0.60;91.80;;;;;;5065247;28;20055;-76
2022/01/06 04:57:09;;;;;;;29.00;11.38;;;-0.60;91.80;;;;;;5076437;28;20047;-76
2022/01/06 04:59:37;;;;;;;36.90;12.57;;;-0.50;91.80;;;;;;5081402;28;20036;-76
2022/01/06 05:02:05;;;;;;;34.47;11.25;;;-0.60;91.80;;;;;;5077254;28;20490;-76
2022/01/06 05:04:33;;;;;;;31.33;11.60;;;-0.50;91.80;;;;;;5075554;28;20047;-76
2022/01/06 05:07:01;;;;;;;31.42;11.85;;;-0.50;91.80;;;;;;5065627;28;20056;-76
2022/01/06 05:09:28;;;;;;;33.63;11.57;;;-0.60;91.70;;;;;;5085721;28;20390;-76
2022/01/06 05:11:56;;;;;;;27.52;11.95;;;-0.60;91.80;;;;;;5072619;28;20041;-77
2022/01/06 05:14:24;;;;;;;27.70;11.35;;;-0.60;91.80;;;;;;5073731;28;20059;-76
2022/01/06 05:16:51;;;;;;;40.85;12.38;;;-0.60;91.80;;;;;;5082493;28;20044;-76
2022/01/06 05:19:19;;;;;;;28.90;11.82;;;-0.60;91.80;;;;;;5087673;28;20407;-76
2022/01/06 05:21:47;;;;;;;31.60;10.65;;;-0.50;91.80;;;;;;5079491;28;20032;-77
2022/01/06 05:24:23;;;;;;;30.90;10.70;;;-0.50;91.80;;;;;;5069846;28;20037;-76
2022/01/06 05:26:53;;;;;;;30.48;9.52;;;-0.50;91.80;;;;;;5088284;28;20036;-77
2022/01/06 05:29:22;;;;;;;26.55;9.15;;;-0.50;91.80;;;;;;5062966;28;20052;-77
2022/01/06 05:31:50;;;;;;;26.98;9.55;;;-0.50;91.80;;;;;;5082356;28;20483;-76
2022/01/06 05:34:18;;;;;;;24.13;9.45;;;-0.40;91.80;;;;;;5086672;28;20040;-77
2022/01/06 05:36:45;;;;;;;25.23;9.57;;;-0.50;91.70;;;;;;5075644;28;20484;-77
2022/01/06 05:39:13;;;;;;;29.70;9.48;;;-0.40;91.80;;;;;;5088051;28;20055;-76
2022/01/06 05:41:41;;;;;;;33.45;9.32;;;-0.40;91.70;;;;;;5073635;28;20052;-77
2022/01/06 05:44:09;;;;;;;26.17;8.65;;;-0.40;91.70;;;;;;5088664;28;20066;-77
2022/01/06 05:46:37;;;;;;;28.73;9.15;;;-0.40;91.70;;;;;;5078056;28;20044;-76
2022/01/06 05:49:05;;;;;;;22.40;8.18;;;-0.40;91.70;;;;;;5077691;28;20041;-77
2022/01/06 05:51:32;;;;;;;33.55;10.45;;;-0.40;91.70;;;;;;5050294;28;20406;-76
2022/01/06 05:54:00;;;;;;;24.55;7.97;;;-0.40;91.70;;;;;;5087577;28;20605;-77
2022/01/06 05:56:28;;;;;;;23.52;8.43;;;-0.40;91.60;;;;;;5061613;28;20044;-76
2022/01/06 05:58:56;;;;;;;25.50;8.68;;;-0.30;91.70;;;;;;5065082;28;20051;-76
2022/01/06 06:01:24;;;;;;;21.73;8.85;;;-0.30;91.60;;;;;;5085296;28;20051;-76
2022/01/06 06:03:54;;;;;;;22.63;8.32;;;-0.30;91.60;;;;;;5054556;28;20048;-76
2022/01/06 06:06:21;;;;;;;27.77;8.52;;;-0.30;91.60;;;;;;5067786;28;20044;-77
2022/01/06 06:08:49;;;;;;;21.00;8.60;;;-0.20;91.60;;;;;;5086296;28;20040;-77
2022/01/06 06:11:17;;;;;;;22.75;9.32;;;-0.20;91.60;;;;;;5080955;28;20037;-76
2022/01/06 06:13:45;;;;;;;24.15;8.77;;;-0.20;91.60;;;;;;5080413;28;20052;-76
2022/01/06 06:16:12;;;;;;;22.05;8.88;;;-0.20;91.50;;;;;;5090121;28;20039;-77
2022/01/06 06:18:40;;;;;;;27.88;8.27;;;-0.20;91.50;;;;;;5074731;28;20045;-77
2022/01/06 06:21:08;;;;;;;28.60;8.40;;;-0.20;91.50;;;;;;5076765;28;20051;-77
2022/01/06 06:23:36;;;;;;;22.63;8.68;;;-0.20;91.50;;;;;;5084573;28;20036;-76
2022/01/06 06:26:04;;;;;;;28.83;9.13;;;-0.10;91.50;;;;;;5075332;28;20063;-76
2022/01/06 06:28:31;;;;;;;22.42;8.13;;;-0.20;91.40;;;;;;5079481;28;20048;-76
2022/01/06 06:30:59;;;;;;;19.42;8.05;;;-0.10;91.40;;;;;;5083422;28;20059;-76
2022/01/06 06:33:27;;;;;;;22.48;7.80;;;-0.10;91.40;;;;;;5079977;28;20500;-76
2022/01/06 06:35:55;;;;;;;26.10;8.10;;;-0.10;91.40;;;;;;5090907;28;20040;-76
2022/01/06 06:38:22;;;;;;;17.15;7.30;;;-0.10;91.40;;;;;;5066713;28;20052;-76
2022/01/06 06:40:50;;;;;;;22.30;7.88;;;-0.10;91.40;;;;;;5064408;28;20055;-76
2022/01/06 06:43:18;;;;;;;20.42;6.30;;;-0.10;91.30;;;;;;5080873;28;20484;-76
2022/01/06 06:45:46;;;;;;;14.20;5.25;;;0.00;91.30;;;;;;5084248;28;20502;-76
2022/01/06 06:48:13;;;;;;;13.65;5.15;;;0.00;91.10;;;;;;5080157;28;20056;-76
2022/01/06 06:50:42;;;;;;;10.00;4.00;;;0.00;91.00;;;;;;5084399;28;20039;-76
2022/01/06 06:53:10;;;;;;;10.95;4.07;;;0.00;90.90;;;;;;5070684;28;20048;-76
2022/01/06 06:55:37;;;;;;;8.15;3.60;;;0.00;90.70;;;;;;5077827;28;20048;-76
2022/01/06 06:58:05;;;;;;;7.45;3.90;;;0.10;90.60;;;;;;5064366;28;20055;-77
2022/01/06 07:00:33;;;;;;;11.60;3.63;;;0.10;90.50;;;;;;5078782;28;20540;-76
2022/01/06 07:03:00;;;;;;;11.75;4.32;;;0.20;90.50;;;;;;5082879;28;20044;-76
2022/01/06 07:05:29;;;;;;;12.05;4.18;;;0.10;90.30;;;;;;5083493;28;20045;-76
2022/01/06 07:07:57;;;;;;;16.63;3.90;;;0.10;90.20;;;;;;5077906;28;20495;-76
2022/01/06 07:10:25;;;;;;;11.93;4.18;;;0.10;90.30;;;;;;5061215;28;20546;-76
2022/01/06 07:12:52;;;;;;;11.27;3.55;;;0.10;90.20;;;;;;5077173;28;20044;-75
2022/01/06 07:15:20;;;;;;;11.27;4.10;;;0.00;90.20;;;;;;5083076;28;20430;-74
2022/01/06 07:17:48;;;;;;;9.95;3.85;;;0.10;90.20;;;;;;5075153;28;20124;-73
2022/01/06 07:20:16;;;;;;;16.95;4.40;;;0.00;90.20;;;;;;5080518;28;20059;-74
2022/01/06 07:22:44;;;;;;;17.20;5.45;;;0.00;90.20;;;;;;5079367;28;20032;-74
2022/01/06 07:25:12;;;;;;;21.02;5.90;;;0.00;90.20;;;;;;5079340;28;20055;-76
2022/01/06 07:27:39;;;;;;;24.92;6.10;;;0.00;90.10;;;;;;5077552;28;20051;-74
2022/01/06 07:30:08;;;;;;;21.83;6.72;;;0.00;90.10;;;;;;5077747;28;20040;-73
2022/01/06 07:32:47;;;;;;;18.27;6.63;;;0.00;90.00;;;;;;5069667;28;20427;-73
2022/01/06 07:35:18;;;;;;;15.70;7.15;;;-0.10;90.10;;;;;;5087554;28;20048;-73
2022/01/06 07:37:48;;;;;;;17.80;7.05;;;-0.20;90.10;;;;;;5080382;28;20403;-73
2022/01/06 07:40:16;;;;;;;19.35;6.68;;;-0.30;90.10;;;;;;5078649;28;20040;-74
2022/01/06 07:42:43;;;;;;;21.42;6.25;;;-0.40;90.20;;;;;;5076612;28;20059;-73
2022/01/06 07:45:12;;;;;;;20.45;7.00;;;-0.50;90.30;;;;;;5076320;28;20041;-75
2022/01/06 07:47:55;;;;;;;17.10;6.60;;;-0.50;90.30;;;;;;5060492;28;20051;-75
2022/01/06 07:50:26;;;;;;;17.45;6.25;;;-0.60;90.30;;;;;;5086091;28;20511;-75
2022/01/06 07:52:54;;;;;;;19.40;6.72;;;-0.70;90.40;;;;;;5075116;28;20055;-75
2022/01/06 07:55:22;;;;;;;17.45;6.95;;;-0.70;90.60;;;;;;5068717;28;20063;-77
2022/01/06 07:57:50;;;;;;;19.50;6.82;;;-0.70;90.60;;;;;;5089675;28;20407;-73
2022/01/06 08:00:19;;;;;;;15.43;6.22;;;-0.70;90.70;;;;;;5056517;28;20040;-74
2022/01/06 08:02:47;;;;;;;18.95;7.32;;;-0.60;90.70;;;;;;5074464;28;20040;-73
2022/01/06 08:05:16;;;;;;;16.17;6.40;;;-0.60;90.70;;;;;;5085965;28;20047;-73
2022/01/06 08:07:43;;;;;;;18.60;6.45;;;-0.60;90.70;;;;;;5090458;28;20520;-74
2022/01/06 08:10:12;;;;;;;18.58;6.18;;;-0.50;90.60;;;;;;5091510;28;20036;-74
2022/01/06 08:12:41;;;;;;;19.63;5.55;;;-0.40;90.60;;;;;;5089485;28;20040;-74
2022/01/06 08:15:09;;;;;;;21.73;5.72;;;-0.40;90.60;;;;;;5064924;28;20522;-74
2022/01/06 08:17:37;;;;;;;15.57;5.10;;;-0.30;90.50;;;;;;5077604;28;20059;-74
2022/01/06 08:20:06;;;;;;;14.25;5.22;;;-0.30;90.40;;;;;;5075614;28;20380;-74
2022/01/06 08:22:35;;;;;;;12.65;4.95;;;-0.40;90.40;;;;;;5070445;28;20048;-74
2022/01/06 08:25:05;;;;;;;12.43;4.90;;;-0.40;90.40;;;;;;5070024;28;20075;-74
2022/01/06 08:27:33;;;;;;;18.70;5.05;;;-0.40;90.40;;;;;;5071481;28;20048;-75
2022/01/06 08:30:00;;;;;;;18.85;4.88;;;-0.40;90.40;;;;;;5074283;28;20051;-75
2022/01/06 08:32:28;;;;;;;15.90;5.53;;;-0.40;90.50;;;;;;5074160;28;20044;-75
2022/01/06 08:34:56;;;;;;;13.63;4.03;;;-0.40;90.50;;;;;;5092016;28;20051;-75
2022/01/06 08:37:23;;;;;;;14.85;4.38;;;-0.30;90.50;;;;;;5092335;28;20415;-74
2022/01/06 08:39:51;;;;;;;14.85;3.97;;;-0.30;90.50;;;;;;5073715;28;20055;-75
2022/01/06 08:42:18;;;;;;;10.73;3.90;;;-0.20;90.40;;;;;;5092434;28;20047;-75
2022/01/06 08:44:46;;;;;;;12.80;4.05;;;-0.20;90.40;;;;;;5073591;28;20043;-75
2022/01/06 08:47:14;;;;;;;7.50;3.13;;;-0.10;90.30;;;;;;5073675;28;20497;-75
2022/01/06 08:49:41;;;;;;;10.15;3.30;;;-0.10;90.20;;;;;;5091609;28;20052;-75
2022/01/06 08:52:09;;;;;;;16.02;4.10;;;0.00;90.10;;;;;;5092193;28;20425;-75
2022/01/06 08:54:37;;;;;;;13.00;3.60;;;0.00;90.00;;;;;;5056861;28;20055;-75
2022/01/06 08:57:04;;;;;;;8.80;3.33;;;0.00;89.90;;;;;;5092116;28;20044;-75
2022/01/06 08:59:32;;;;;;;18.58;3.72;;;0.10;89.80;;;;;;5091986;28;20390;-75
2022/01/06 09:02:00;;;;;;;12.15;3.35;;;0.20;89.60;;;;;;5092211;28;20487;-75
2022/01/06 09:04:27;;;;;;;10.18;3.15;;;0.30;89.40;;;;;;5092207;28;20067;-75
2022/01/06 09:06:55;;;;;;;7.78;2.80;;;0.30;89.20;;;;;;5090794;28;20048;-75
2022/01/06 09:09:23;;;;;;;8.88;2.83;;;0.40;89.20;;;;;;5090446;28;20487;-75
2022/01/06 09:11:51;;;;;;;10.15;3.35;;;0.40;89.10;;;;;;5092157;28;20044;-75
2022/01/06 09:14:18;;;;;;;12.88;3.60;;;0.50;89.00;;;;;;5091744;28;20529;-75
2022/01/06 09:16:46;;;;;;;15.38;2.95;;;0.50;88.90;;;;;;5091146;28;20410;-75
2022/01/06 09:19:14;;;;;;;10.77;2.80;;;0.60;88.80;;;;;;5091585;28;20398;-75
2022/01/06 09:21:41;;;;;;;9.95;2.72;;;0.70;88.70;;;;;;5094316;28;20400;-75
2022/01/06 09:24:09;;;;;;;7.07;2.45;;;0.80;88.50;;;;;;5095577;28;20059;-75
2022/01/06 09:26:38;;;;;;;11.45;2.70;;;0.80;88.40;;;;;;5077624;28;20051;-75
2022/01/06 09:29:07;;;;;;;6.78;2.33;;;0.90;88.10;;;;;;5095385;28;20048;-75
2022/01/06 09:31:36;;;;;;;16.83;2.33;;;1.00;88.00;;;;;;5095427;28;20410;-75
2022/01/06 09:34:09;;;;;;;8.20;2.15;;;1.20;87.80;;;;;;5095930;28;20059;-75
2022/01/06 09:36:39;;;;;;;11.68;2.28;;;1.20;87.60;;;;;;5095256;28;20055;-76
2022/01/06 09:39:09;;;;;;;5.93;1.98;;;1.30;87.30;;;;;;5095411;28;20040;-76
2022/01/06 09:41:38;;;;;;;7.55;1.85;;;1.40;87.00;;;;;;5077460;28;20044;-76
2022/01/06 09:44:07;;;;;;;10.40;2.08;;;1.40;86.80;;;;;;5095276;28;20411;-76
2022/01/06 09:46:57;;;;;;;6.72;2.05;;;1.50;86.60;;;;;;5095312;28;20048;-76
2022/01/06 09:49:25;;;;;;;7.85;2.10;;;1.50;86.60;;;;;;5086753;28;20063;-76
2022/01/06 09:51:53;;;;;;;6.35;1.73;;;1.60;86.30;;;;;;5093867;28;20040;-76
2022/01/06 09:54:20;;;;;;;7.78;2.20;;;1.60;86.10;;;;;;5093980;28;20067;-76
2022/01/06 09:56:48;;;;;;;7.13;1.75;;;1.70;85.90;;;;;;5087569;28;20483;-76
2022/01/06 09:59:16;;;;;;;7.20;1.88;;;1.70;85.60;;;;;;5074847;28;20052;-76
2022/01/06 10:01:43;;;;;;;10.18;2.00;;;1.80;85.10;;;;;;5076678;28;20036;-76
2022/01/06 10:04:27;;;;;;;6.75;2.00;;;1.80;85.00;;;;;;5094760;28;20044;-76
2022/01/06 10:07:02;;;;;;;11.27;2.25;;;1.80;84.70;;;;;;5094927;28;20052;-76
2022/01/06 10:09:31;;;;;;;11.82;1.90;;;1.90;84.70;;;;;;5093606;28;20048;-76
2022/01/06 10:12:03;;;;;;;10.38;2.42;;;1.90;84.20;;;;;;5095018;28;20048;-76
2022/01/06 10:14:44;;;;;;;5.97;2.35;;;2.00;84.00;;;;;;5095013;28;20048;-77
2022/01/06 10:17:14;;;;;;;11.88;2.47;;;2.00;84.00;;;;;;5093764;28;20036;-76
2022/01/06 10:19:44;;;;;;;11.85;2.50;;;2.00;83.60;;;;;;5093362;28;20067;-76
2022/01/06 10:22:19;;;;;;;6.75;2.20;;;2.00;83.50;;;;;;5094372;28;20403;-75
2022/01/06 10:24:49;;;;;;;8.60;2.00;;;2.10;83.50;;;;;;5094484;28;20114;-75
2022/01/06 10:27:19;;;;;;;5.80;1.90;;;2.10;83.40;;;;;;5091959;28;20040;-75
2022/01/06 10:29:52;;;;;;;9.35;2.15;;;2.20;83.10;;;;;;5084697;28;20055;-75
2022/01/06 10:32:23;;;;;;;8.23;2.33;;;2.20;83.00;;;;;;5093607;28;20036;-75
2022/01/06 10:34:54;;;;;;;8.35;2.00;;;2.20;82.60;;;;;;5094674;28;20048;-76
2022/01/06 10:37:39;;;;;;;6.43;1.90;;;2.30;82.40;;;;;;5074287;28;20045;-76
2022/01/06 10:40:18;;;;;;;14.43;2.33;;;2.30;82.50;;;;;;5074228;28;20060;-75
2022/01/06 10:42:49;;;;;;;12.48;2.28;;;2.30;82.30;;;;;;5074218;28;20052;-75
2022/01/06 10:45:23;;;;;;;9.25;1.80;;;2.30;82.30;;;;;;5073213;28;20051;-74
2022/01/06 10:47:53;;;;;;;8.70;1.90;;;2.30;82.40;;;;;;5079406;28;20376;-75
2022/01/06 10:50:24;;;;;;;25.30;10.23;;;2.30;82.70;;;;;;5094320;28;20044;-75
2022/01/06 10:52:52;;;;;;;12.55;3.25;;;2.30;83.40;;;;;;5094318;28;20464;-75
2022/01/06 10:55:29;;;;;;;93.70;48.33;;;2.20;83.90;;;;;;5092881;28;20058;-75
2022/01/06 10:58:00;;;;;;;9.10;2.40;;;2.10;84.30;;;;;;5094287;28;20075;-76
2022/01/06 11:00:40;;;;;;;7.97;2.25;;;2.10;84.90;;;;;;5093384;28;20059;-75
2022/01/06 11:03:16;;;;;;;12.18;2.15;;;1.90;85.10;;;;;;5094249;28;20490;-75
2022/01/06 11:05:52;;;;;;;11.32;2.63;;;1.90;85.70;;;;;;5092006;28;20052;-75
2022/01/06 11:08:29;;;;;;;8.65;2.67;;;1.80;86.00;;;;;;5093014;28;20048;-75
2022/01/06 11:13:36;;;;;;;8.50;2.67;;;1.80;86.90;;;;;;5090940;28;20048;-75
2022/01/06 11:16:05;;;;;;;9.40;2.50;;;1.70;87.00;;;;;;5091674;28;20402;-75
2022/01/06 11:18:34;;;;;;;8.00;2.63;;;1.70;87.20;;;;;;5090082;28;20044;-75
2022/01/06 11:21:03;;;;;;;5.65;2.38;;;1.60;87.70;;;;;;5092027;28;20605;-75
2022/01/06 11:23:32;;;;;;;15.27;3.05;;;1.60;87.80;;;;;;5075672;28;20549;-75
2022/01/06 11:26:17;;;;;;;12.13;2.75;;;1.50;88.20;;;;;;5093619;28;20056;-75
2022/01/06 11:28:54;;;;;;;13.80;2.97;;;1.50;88.30;;;;;;5056348;28;20643;-75
2022/01/06 11:31:24;;;;;;;13.05;2.65;;;1.40;88.70;;;;;;5073394;28;20492;-75
2022/01/06 11:33:53;;;;;;;9.93;3.05;;;1.30;88.80;;;;;;5073196;28;20040;-75
2022/01/06 11:36:24;;;;;;;12.70;2.80;;;1.30;88.90;;;;;;5071867;28;20048;-75
2022/01/06 11:38:53;;;;;;;15.27;3.35;;;1.30;89.00;;;;;;5073127;28;20037;-75
2022/01/06 11:41:29;;;;;;;10.30;3.30;;;1.30;89.10;;;;;;5071815;28;20047;-75
2022/01/06 11:43:58;;;;;;;11.10;2.63;;;1.30;89.20;;;;;;5071609;28;20052;-75
2022/01/06 11:46:26;;;;;;;14.98;3.45;;;1.20;89.40;;;;;;5072983;28;20052;-75
2022/01/06 11:48:58;;;;;;;13.82;3.20;;;1.20;89.50;;;;;;5071391;28;20055;-75
2022/01/06 11:51:29;;;;;;;12.90;3.70;;;1.20;89.70;;;;;;5072761;28;20491;-75
2022/01/06 11:53:59;;;;;;;12.45;3.28;;;1.20;90.00;;;;;;5072983;28;20044;-75
2022/01/06 11:56:28;;;;;;;15.85;4.05;;;1.20;90.00;;;;;;5072854;28;20487;-76
2022/01/06 11:58:58;;;;;;;12.95;3.75;;;1.20;90.00;;;;;;5071686;28;20048;-76
2022/01/06 12:01:26;;;;;;;10.88;3.35;;;1.20;90.10;;;;;;5072769;28;20044;-76
2022/01/06 12:03:54;;;;;;;16.92;3.70;;;1.20;90.10;;;;;;5072105;28;20130;-76
2022/01/06 12:06:30;;;;;;;8.40;2.95;;;1.20;90.20;;;;;;5074041;28;20048;-76
2022/01/06 12:09:01;;;;;;;11.18;3.28;;;1.30;90.30;;;;;;5092917;28;20040;-76
2022/01/06 12:11:33;;;;;;;11.43;3.78;;;1.30;90.40;;;;;;5091465;28;20543;-76
2022/01/06 12:14:02;;;;;;;13.57;3.60;;;1.30;90.40;;;;;;5092726;28;20048;-76
2022/01/06 12:16:32;;;;;;;16.63;3.00;;;1.30;90.40;;;;;;5092577;28;20048;-75
2022/01/06 12:19:02;;;;;;;14.95;3.65;;;1.30;90.40;;;;;;5092037;28;20048;-75
2022/01/06 12:21:30;;;;;;;7.70;2.70;;;1.30;90.40;;;;;;5092382;28;20063;-75
2022/01/06 12:24:03;;;;;;;10.93;2.40;;;1.40;90.60;;;;;;5092443;28;20047;-75
2022/01/06 12:26:31;;;;;;;11.70;2.38;;;1.40;90.60;;;;;;5091485;28;20085;-75
2022/01/06 12:28:59;;;;;;;6.28;2.13;;;1.40;90.60;;;;;;5091835;28;20063;-75
2022/01/06 12:31:31;;;;;;;6.35;2.20;;;1.40;90.60;;;;;;5092139;28;20066;-74
2022/01/06 12:34:02;;;;;;;10.43;2.60;;;1.50;90.60;;;;;;5090538;28;20044;-74
2022/01/06 12:36:33;;;;;;;9.32;2.13;;;1.50;90.60;;;;;;5091967;28;20047;-74
2022/01/06 12:39:12;;;;;;;7.13;2.08;;;1.50;90.80;;;;;;5090594;28;20035;-74
2022/01/06 12:41:40;;;;;;;7.07;1.85;;;1.60;90.80;;;;;;5091305;28;20048;-74
2022/01/06 12:44:09;;;;;;;12.30;2.00;;;1.60;90.80;;;;;;5092229;28;20434;-73
2022/01/06 12:46:41;;;;;;;8.52;2.03;;;1.70;90.80;;;;;;5090423;28;20052;-74
2022/01/06 12:49:10;;;;;;;8.38;1.70;;;1.70;90.90;;;;;;5091350;28;20048;-75
2022/01/06 12:51:46;;;;;;;7.65;2.33;;;1.80;90.90;;;;;;5092079;28;20044;-79
2022/01/06 12:54:18;;;;;;;6.60;2.13;;;1.80;90.90;;;;;;5091988;28;20044;-77
2022/01/06 12:56:54;;;;;;;11.45;2.10;;;1.80;91.00;;;;;;5088386;28;20055;-76
2022/01/06 12:59:33;;;;;;;9.95;2.00;;;1.80;91.00;;;;;;5089761;28;20040;-77
2022/01/06 13:02:12;;;;;;;11.75;2.08;;;1.90;91.00;;;;;;5071383;28;20063;-74